EAG5502 SBFZ-SBGR
Flight info
| Callsign | EAG5502 |
|---|---|
| Flight time | N/A |
| Altitude | 36000 |
| Route | ERUGU UZ61 REDAD UZ21 VUNOX |
| Aircraft | A346/H-SDE2E3FGHIJ3J4J5M1RWXY/LB1D1 |
Departure
| Time | 2026-05-08 19:27 |
|---|---|
| Airport | Pinto Martins International Airport (SBFZ) |
Arrival
| Time | N/A |
|---|---|
| Airport | São Paulo/Guarulhos–Governor André Franco Montoro International Airport (SBGR) |
| Time | Latitude | Longitude | Altitude | Speed | Heading |
|---|---|---|---|---|---|
| 2026-05-08 19:13 | -3.77762 | -38.54211 | 100 ft | 0 kts | 131° |
| 2026-05-08 19:21 | -3.77763 | -38.54211 | 100 ft | 0 kts | 131° |
| 2026-05-08 19:21 | -3.77765 | -38.54207 | 100 ft | 1 kts | 131° |
| 2026-05-08 19:22 | -3.77766 | -38.54206 | 100 ft | 0 kts | 131° |
| 2026-05-08 19:23 | -3.77769 | -38.54201 | 102 ft | 0 kts | 108° |
| 2026-05-08 19:23 | -3.77768 | -38.54189 | 103 ft | 4 kts | 69° |
| 2026-05-08 19:24 | -3.77740 | -38.54182 | 102 ft | 5 kts | 330° |
| 2026-05-08 19:24 | -3.77702 | -38.54227 | 102 ft | 11 kts | 309° |
| 2026-05-08 19:24 | -3.77646 | -38.54297 | 102 ft | 14 kts | 309° |
| 2026-05-08 19:24 | -3.77572 | -38.54368 | 102 ft | 15 kts | 334° |
| 2026-05-08 19:25 | -3.77470 | -38.54370 | 101 ft | 15 kts | 351° |
| 2026-05-08 19:25 | -3.77375 | -38.54351 | 103 ft | 12 kts | 62° |
| 2026-05-08 19:25 | -3.77365 | -38.54261 | 103 ft | 14 kts | 105° |
| 2026-05-08 19:25 | -3.77376 | -38.54217 | 103 ft | 0 kts | 104° |
| 2026-05-08 19:26 | -3.77379 | -38.54206 | 104 ft | 3 kts | 104° |
| 2026-05-08 19:26 | -3.77386 | -38.54178 | 103 ft | 5 kts | 104° |
| 2026-05-08 19:26 | -3.77405 | -38.54109 | 105 ft | 31 kts | 104° |
| 2026-05-08 19:26 | -3.77540 | -38.53605 | 102 ft | 115 kts | 105° |
| 2026-05-08 19:27 | -3.77808 | -38.52596 | 117 ft | 180 kts | 104° |
| 2026-05-08 19:27 | -3.78150 | -38.51308 | 757 ft | 196 kts | 105° |
| 2026-05-08 19:27 | -3.78505 | -38.50041 | 1757 ft | 183 kts | 106° |
| 2026-05-08 19:27 | -3.78984 | -38.48862 | 2421 ft | 190 kts | 131° |
| 2026-05-08 19:28 | -3.80163 | -38.48171 | 2812 ft | 211 kts | 166° |
| 2026-05-08 19:28 | -3.81699 | -38.48167 | 3215 ft | 232 kts | 182° |
| 2026-05-08 19:28 | -3.83354 | -38.48305 | 3637 ft | 252 kts | 182° |
| 2026-05-08 19:28 | -3.85178 | -38.48443 | 4209 ft | 265 kts | 182° |
| 2026-05-08 19:29 | -3.87003 | -38.48566 | 5012 ft | 268 kts | 181° |
| 2026-05-08 19:29 | -3.88876 | -38.48684 | 5591 ft | 270 kts | 181° |
| 2026-05-08 19:29 | -3.90760 | -38.48796 | 5872 ft | 272 kts | 181° |
| 2026-05-08 19:29 | -3.92686 | -38.48905 | 6248 ft | 282 kts | 180° |
| 2026-05-08 19:30 | -3.94630 | -38.49017 | 7132 ft | 279 kts | 180° |
| 2026-05-08 19:30 | -3.96568 | -38.49188 | 7967 ft | 281 kts | 185° |
| 2026-05-08 19:30 | -3.98509 | -38.49543 | 8706 ft | 286 kts | 190° |
| 2026-05-08 19:30 | -4.00455 | -38.50024 | 9436 ft | 291 kts | 191° |
| 2026-05-08 19:31 | -4.02428 | -38.50529 | 10119 ft | 295 kts | 192° |
| 2026-05-08 19:31 | -4.04453 | -38.51049 | 10571 ft | 308 kts | 192° |
| 2026-05-08 19:31 | -4.06590 | -38.51594 | 10881 ft | 325 kts | 192° |
| 2026-05-08 19:31 | -4.08839 | -38.52166 | 11172 ft | 342 kts | 192° |
| 2026-05-08 19:32 | -4.11207 | -38.52769 | 11465 ft | 359 kts | 192° |
| 2026-05-08 19:32 | -4.13686 | -38.53399 | 11747 ft | 376 kts | 192° |
| 2026-05-08 19:32 | -4.16268 | -38.54056 | 12118 ft | 388 kts | 192° |
| 2026-05-08 19:32 | -4.18892 | -38.54725 | 12761 ft | 391 kts | 192° |
| 2026-05-08 19:33 | -4.21544 | -38.55401 | 13474 ft | 394 kts | 192° |
| 2026-05-08 19:33 | -4.24209 | -38.56080 | 14089 ft | 397 kts | 192° |
| 2026-05-08 19:33 | -4.26899 | -38.56763 | 14644 ft | 401 kts | 192° |
| 2026-05-08 19:33 | -4.29617 | -38.57453 | 15187 ft | 405 kts | 192° |
| 2026-05-08 19:34 | -4.32361 | -38.58150 | 15736 ft | 409 kts | 192° |
| 2026-05-08 19:34 | -4.35136 | -38.58854 | 16274 ft | 413 kts | 193° |
| 2026-05-08 19:34 | -4.37933 | -38.59565 | 16817 ft | 417 kts | 193° |
| 2026-05-08 19:34 | -4.40756 | -38.60284 | 17348 ft | 421 kts | 193° |
| 2026-05-08 19:35 | -4.43607 | -38.61008 | 17862 ft | 425 kts | 193° |
| 2026-05-08 19:35 | -4.46441 | -38.61729 | 18349 ft | 428 kts | 193° |
| 2026-05-08 19:35 | -4.49363 | -38.62566 | 18789 ft | 433 kts | 197° |
| 2026-05-08 19:35 | -4.52227 | -38.63547 | 19202 ft | 437 kts | 198° |
| 2026-05-08 19:36 | -4.55100 | -38.64572 | 19628 ft | 440 kts | 199° |
| 2026-05-08 19:36 | -4.58000 | -38.65612 | 20076 ft | 443 kts | 198° |
| 2026-05-08 19:36 | -4.60913 | -38.66656 | 20495 ft | 447 kts | 199° |
| 2026-05-08 19:36 | -4.63857 | -38.67709 | 20887 ft | 451 kts | 199° |
| 2026-05-08 19:37 | -4.66821 | -38.68765 | 21310 ft | 454 kts | 199° |
| 2026-05-08 19:37 | -4.69805 | -38.69832 | 21731 ft | 457 kts | 199° |
| 2026-05-08 19:37 | -4.72768 | -38.70891 | 22086 ft | 461 kts | 199° |
| 2026-05-08 19:37 | -4.75800 | -38.71975 | 22483 ft | 464 kts | 199° |
| 2026-05-08 19:38 | -4.78851 | -38.73063 | 22887 ft | 467 kts | 199° |
| 2026-05-08 19:38 | -4.81927 | -38.74161 | 23240 ft | 471 kts | 199° |
| 2026-05-08 19:38 | -4.85022 | -38.75267 | 23589 ft | 473 kts | 199° |
| 2026-05-08 19:38 | -4.88128 | -38.76377 | 23939 ft | 475 kts | 200° |
| 2026-05-08 19:39 | -4.91277 | -38.77504 | 24265 ft | 478 kts | 200° |
| 2026-05-08 19:39 | -4.94411 | -38.78631 | 24615 ft | 479 kts | 200° |
| 2026-05-08 19:39 | -4.97552 | -38.79762 | 24998 ft | 480 kts | 200° |
| 2026-05-08 19:39 | -5.00697 | -38.80893 | 25347 ft | 482 kts | 200° |
| 2026-05-08 19:40 | -5.03860 | -38.82031 | 25690 ft | 484 kts | 200° |
| 2026-05-08 19:40 | -5.07033 | -38.83171 | 26045 ft | 485 kts | 200° |
| 2026-05-08 19:40 | -5.10219 | -38.84314 | 26382 ft | 487 kts | 200° |
| 2026-05-08 19:40 | -5.13414 | -38.85465 | 26699 ft | 489 kts | 200° |
| 2026-05-08 19:41 | -5.16625 | -38.86620 | 27059 ft | 490 kts | 200° |
| 2026-05-08 19:41 | -5.19864 | -38.87784 | 27404 ft | 492 kts | 200° |
| 2026-05-08 19:41 | -5.23090 | -38.88945 | 27731 ft | 494 kts | 200° |
| 2026-05-08 19:41 | -5.26330 | -38.90112 | 28064 ft | 495 kts | 200° |
| 2026-05-08 19:42 | -5.29576 | -38.91279 | 28449 ft | 495 kts | 200° |
| 2026-05-08 19:42 | -5.32814 | -38.92445 | 28949 ft | 493 kts | 200° |
| 2026-05-08 19:42 | -5.36035 | -38.93604 | 29475 ft | 490 kts | 200° |
| 2026-05-08 19:42 | -5.39241 | -38.94757 | 29977 ft | 488 kts | 200° |
| 2026-05-08 19:43 | -5.41352 | -38.95517 | 30249 ft | 487 kts | 200° |
| 2026-05-08 19:43 | -5.45622 | -38.97054 | 30722 ft | 487 kts | 201° |
| 2026-05-08 19:43 | -5.48819 | -38.98204 | 31053 ft | 487 kts | 201° |
| 2026-05-08 19:43 | -5.52008 | -38.99352 | 31400 ft | 488 kts | 201° |
| 2026-05-08 19:44 | -5.55152 | -39.00484 | 31764 ft | 488 kts | 201° |
| 2026-05-08 19:44 | -5.58348 | -39.01634 | 32119 ft | 488 kts | 201° |
| 2026-05-08 19:44 | -5.61543 | -39.02784 | 32483 ft | 488 kts | 201° |
| 2026-05-08 19:44 | -5.64734 | -39.03930 | 32860 ft | 487 kts | 201° |
| 2026-05-08 19:45 | -5.67927 | -39.05079 | 33255 ft | 487 kts | 202° |
| 2026-05-08 19:45 | -5.71113 | -39.06227 | 33636 ft | 486 kts | 202° |
| 2026-05-08 19:45 | -5.74300 | -39.07375 | 34002 ft | 486 kts | 202° |
| 2026-05-08 19:45 | -5.77480 | -39.08522 | 34333 ft | 486 kts | 202° |
| 2026-05-08 19:46 | -5.80665 | -39.09670 | 34658 ft | 486 kts | 202° |
| 2026-05-08 19:46 | -5.83845 | -39.10814 | 34984 ft | 486 kts | 202° |
| 2026-05-08 19:46 | -5.89135 | -39.12717 | 35518 ft | 485 kts | 202° |
| 2026-05-08 19:47 | -5.93382 | -39.14244 | 35895 ft | 485 kts | 202° |
| 2026-05-08 19:47 | -5.95491 | -39.15002 | 35907 ft | 485 kts | 202° |
| 2026-05-08 19:47 | -6.02960 | -39.17688 | 35916 ft | 496 kts | 202° |
| 2026-05-08 19:48 | -6.08422 | -39.19651 | 35912 ft | 498 kts | 202° |
| 2026-05-08 19:48 | -6.14946 | -39.21997 | 35914 ft | 498 kts | 202° |
| 2026-05-08 19:49 | -6.21467 | -39.24341 | 35910 ft | 498 kts | 202° |
| 2026-05-08 19:49 | -6.27945 | -39.26671 | 35912 ft | 498 kts | 202° |
| 2026-05-08 19:50 | -6.34470 | -39.29025 | 35911 ft | 498 kts | 202° |
| 2026-05-08 19:50 | -6.40992 | -39.31379 | 35913 ft | 498 kts | 202° |
| 2026-05-08 19:51 | -6.47515 | -39.33732 | 35913 ft | 498 kts | 202° |
| 2026-05-08 19:51 | -6.54024 | -39.36081 | 35915 ft | 497 kts | 201° |
| 2026-05-08 19:52 | -6.60529 | -39.38427 | 35913 ft | 496 kts | 201° |
| 2026-05-08 19:52 | -6.67024 | -39.40770 | 35913 ft | 496 kts | 201° |
| 2026-05-08 19:53 | -6.73525 | -39.43116 | 35910 ft | 496 kts | 201° |
| 2026-05-08 19:53 | -6.79973 | -39.45444 | 35910 ft | 495 kts | 201° |
| 2026-05-08 19:54 | -6.86455 | -39.47782 | 35920 ft | 495 kts | 201° |
| 2026-05-08 19:54 | -6.92938 | -39.50125 | 35922 ft | 495 kts | 201° |
| 2026-05-08 19:55 | -6.99424 | -39.52473 | 35925 ft | 495 kts | 201° |
| 2026-05-08 19:55 | -7.05899 | -39.54818 | 35935 ft | 495 kts | 201° |
| 2026-05-08 19:56 | -7.12377 | -39.57162 | 35938 ft | 495 kts | 201° |
| 2026-05-08 19:56 | -7.18850 | -39.59505 | 35946 ft | 494 kts | 201° |
| 2026-05-08 19:57 | -7.25324 | -39.61847 | 35948 ft | 494 kts | 201° |
| 2026-05-08 19:57 | -7.31792 | -39.64188 | 35953 ft | 494 kts | 201° |
| 2026-05-08 19:58 | -7.38211 | -39.66515 | 35951 ft | 493 kts | 201° |
| 2026-05-08 19:58 | -7.44669 | -39.68854 | 35951 ft | 493 kts | 201° |
| 2026-05-08 19:59 | -7.51128 | -39.71194 | 35954 ft | 493 kts | 201° |
| 2026-05-08 19:59 | -7.57582 | -39.73533 | 35952 ft | 493 kts | 201° |
| 2026-05-08 20:00 | -7.64037 | -39.75875 | 35950 ft | 492 kts | 201° |
| 2026-05-08 20:00 | -7.70490 | -39.78215 | 35942 ft | 492 kts | 201° |
| 2026-05-08 20:01 | -7.76898 | -39.80540 | 35940 ft | 492 kts | 201° |
| 2026-05-08 20:01 | -7.83335 | -39.82877 | 35936 ft | 491 kts | 201° |
| 2026-05-08 20:02 | -7.89763 | -39.85211 | 35935 ft | 491 kts | 201° |
| 2026-05-08 20:02 | -7.96192 | -39.87546 | 35936 ft | 491 kts | 201° |
| 2026-05-08 20:03 | -8.02612 | -39.89878 | 35930 ft | 491 kts | 201° |
| 2026-05-08 20:03 | -8.09036 | -39.92213 | 35932 ft | 491 kts | 201° |
| 2026-05-08 20:04 | -8.15460 | -39.94548 | 35934 ft | 491 kts | 201° |
| 2026-05-08 20:04 | -8.21890 | -39.96886 | 35934 ft | 491 kts | 201° |
| 2026-05-08 20:05 | -8.28267 | -39.99207 | 35922 ft | 491 kts | 201° |